Time;durP1;ratioP1;P1;durP2;ratioP2;P2;SDS_P1;SDS_P2;PMS_P1;PMS_P2;Temp;Humidity;BMP_temperature;BMP_pressure;BME280_temperature;BME280_humidity;BME280_pressure;Samples;Min_cycle;Max_cycle;Signal;HPM_P1;HPM_P2
2022/06/04 00:01:03;;;;;;;4.40;3.90;;;;;;;16.80;53.95;98539.98;106158;1278;24237;-88
2022/06/04 00:03:33;;;;;;;6.00;3.80;;;;;;;16.78;54.38;98532.98;106216;1278;137299;-88
2022/06/04 00:06:00;;;;;;;5.70;3.90;;;;;;;16.75;54.38;98533.52;106206;1278;22652;-88
2022/06/04 00:08:29;;;;;;;6.60;4.20;;;;;;;16.71;54.49;98528.96;106162;1278;137418;-88
2022/06/04 00:16:41;;;;;;;5.30;4.30;;;;;;;16.61;54.64;98528.87;105913;1277;22575;-90
2022/06/04 00:19:12;;;;;;;11.80;4.50;;;;;;;16.58;54.91;98525.41;106113;1277;22535;-88
2022/06/04 00:21:42;;;;;;;4.90;3.90;;;;;;;16.55;54.62;98523.39;105912;1277;137382;-87
2022/06/04 00:24:23;;;;;;;6.90;4.10;;;;;;;16.51;54.87;98518.34;105957;1281;22857;-89
2022/06/04 00:26:50;;;;;;;6.90;4.50;;;;;;;16.47;55.11;98513.52;105977;1277;137152;-89
2022/06/04 00:29:17;;;;;;;9.20;4.20;;;;;;;16.43;55.17;98511.90;106082;1278;26507;-88
2022/06/04 00:31:44;;;;;;;6.80;4.30;;;;;;;16.41;55.46;98503.77;106408;1277;137377;-88
2022/06/04 00:34:14;;;;;;;7.30;4.80;;;;;;;16.37;55.18;98507.80;106242;1277;22642;-87
2022/06/04 00:36:41;;;;;;;5.10;4.40;;;;;;;16.33;55.26;98507.16;106112;1278;22564;-88
2022/06/04 00:39:09;;;;;;;4.70;4.00;;;;;;;16.29;55.56;98504.92;106179;1277;137309;-89
2022/06/04 00:41:46;;;;;;;6.40;4.40;;;;;;;16.26;55.33;98507.69;106301;1277;23467;-89
2022/06/04 00:44:13;;;;;;;6.20;4.50;;;;;;;16.24;55.54;98508.73;105991;1277;137256;-88
2022/06/04 00:47:15;;;;;;;7.30;4.30;;;;;;;16.22;55.63;98507.60;106542;1277;22627;-89
2022/06/04 00:49:42;;;;;;;6.40;4.80;;;;;;;16.21;55.83;98508.32;106290;1277;137707;-90
2022/06/04 00:52:13;;;;;;;6.00;4.10;;;;;;;16.21;56.05;98509.08;106035;1280;22519;-88
2022/06/04 00:54:43;;;;;;;5.20;4.60;;;;;;;16.21;55.82;98507.28;106217;1277;22703;-90
2022/06/04 00:57:29;;;;;;;5.10;4.20;;;;;;;16.19;56.32;98505.69;106025;1277;137277;-90
2022/06/04 01:00:22;;;;;;;6.10;4.30;;;;;;;16.16;55.95;98501.73;106238;1278;23960;-88
2022/06/04 01:03:26;;;;;;;5.30;4.30;;;;;;;16.13;56.31;98498.08;106066;1278;137210;-87
2022/06/04 01:06:28;;;;;;;5.80;4.30;;;;;;;16.10;56.23;98500.48;106407;1277;22787;-89
2022/06/04 01:09:26;;;;;;;5.70;4.00;;;;;;;16.10;56.77;98498.79;106198;1277;137137;-88
2022/06/04 01:12:25;;;;;;;6.90;4.40;;;;;;;16.08;56.69;98501.54;106400;1277;23670;-88
2022/06/04 01:15:10;;;;;;;6.40;4.80;;;;;;;16.07;56.90;98497.42;106508;1278;136865;-89
2022/06/04 01:18:10;;;;;;;6.10;4.90;;;;;;;16.08;56.91;98497.66;106214;1278;25265;-88
2022/06/04 01:20:49;;;;;;;4.70;4.30;;;;;;;16.07;57.05;98492.48;106327;1278;137573;-89
2022/06/04 01:23:40;;;;;;;6.90;5.10;;;;;;;16.07;57.11;98490.13;106354;1277;22516;-88
2022/06/04 01:26:32;;;;;;;6.70;4.10;;;;;;;16.06;57.38;98487.15;105945;1278;137399;-90
2022/06/04 01:29:09;;;;;;;5.60;4.60;;;;;;;16.04;57.42;98481.34;106252;1278;24018;-89
2022/06/04 01:32:02;;;;;;;8.50;4.70;;;;;;;16.03;57.72;98479.15;106259;1277;137398;-89
2022/06/04 01:34:52;;;;;;;7.20;4.80;;;;;;;16.01;58.00;98476.85;106103;1277;23059;-89
2022/06/04 01:37:38;;;;;;;5.10;4.60;;;;;;;16.02;58.12;98473.16;105904;1278;22545;-88
2022/06/04 01:43:04;;;;;;;8.40;5.20;;;;;;;16.00;58.41;98467.13;106092;1278;22569;-89
2022/06/04 01:45:34;;;;;;;7.00;4.80;;;;;;;15.98;57.96;98468.23;106604;1277;137150;-89
2022/06/04 01:48:04;;;;;;;7.40;4.90;;;;;;;16.01;58.19;98467.77;106187;1278;22525;-89
2022/06/04 01:50:48;;;;;;;5.80;5.00;;;;;;;16.02;58.01;98462.51;105978;1277;137349;-89
2022/06/04 01:53:18;;;;;;;7.00;5.50;;;;;;;16.01;58.30;98454.70;106100;1278;23906;-89
2022/06/04 01:55:54;;;;;;;6.10;4.50;;;;;;;16.04;58.51;98453.55;106138;1278;137495;-89
2022/06/04 01:58:47;;;;;;;8.50;5.10;;;;;;;16.07;58.42;98456.00;106153;1278;24273;-89
2022/06/04 02:01:23;;;;;;;5.00;4.40;;;;;;;16.09;58.40;98454.23;106232;1278;26507;-89
2022/06/04 02:04:06;;;;;;;5.70;5.10;;;;;;;16.08;58.72;98444.61;106192;1277;137569;-89
2022/06/04 02:06:40;;;;;;;8.70;5.50;;;;;;;16.11;58.56;98447.30;106056;1277;23953;-88
2022/06/04 02:09:15;;;;;;;7.10;5.00;;;;;;;16.10;58.60;98449.95;106493;1277;137459;-89
2022/06/04 02:11:53;;;;;;;5.50;4.80;;;;;;;16.08;58.51;98447.47;106033;1278;25249;-89
2022/06/04 02:14:20;;;;;;;5.60;4.30;;;;;;;16.10;58.46;98449.23;106159;1277;137320;-89
2022/06/04 02:16:56;;;;;;;6.80;4.70;;;;;;;16.09;58.83;98447.68;106483;1279;22564;-89
2022/06/04 02:19:24;;;;;;;5.80;5.10;;;;;;;16.09;58.61;98447.08;105899;1278;22633;-89
2022/06/04 02:21:54;;;;;;;6.20;5.20;;;;;;;16.08;58.50;98445.61;106070;1278;137308;-89
2022/06/04 02:24:21;;;;;;;8.00;5.10;;;;;;;16.06;58.67;98452.55;106640;1278;22599;-89
2022/06/04 02:26:49;;;;;;;7.10;5.00;;;;;;;16.05;58.87;98450.73;106248;1277;137314;-89
2022/06/04 02:29:17;;;;;;;5.30;4.80;;;;;;;16.06;58.62;98448.81;106231;1278;22553;-88
2022/06/04 02:32:03;;;;;;;7.80;5.70;;;;;;;16.03;58.90;98445.84;105971;1278;137798;-88
2022/06/04 02:34:46;;;;;;;6.50;5.30;;;;;;;16.02;58.70;98445.91;106261;1278;23081;-89
2022/06/04 02:37:35;;;;;;;5.50;4.90;;;;;;;16.02;59.02;98440.59;106070;1278;24483;-89
2022/06/04 02:40:27;;;;;;;8.30;5.40;;;;;;;15.99;59.20;98435.70;106028;1278;22763;-90
2022/06/04 02:43:16;;;;;;;8.00;5.20;;;;;;;15.98;59.23;98435.38;106182;1279;24215;-89
2022/06/04 02:46:05;;;;;;;7.30;5.00;;;;;;;15.98;59.59;98430.66;106253;1277;137874;-88
2022/06/04 02:49:06;;;;;;;8.30;5.30;;;;;;;15.98;59.70;98424.84;106034;1277;22535;-88
2022/06/04 02:51:52;;;;;;;5.60;5.10;;;;;;;15.97;59.81;98423.74;106429;1277;137808;-90
2022/06/04 02:54:35;;;;;;;6.40;5.80;;;;;;;15.96;59.67;98423.53;106616;1277;25262;-91
2022/06/04 02:57:09;;;;;;;7.10;5.10;;;;;;;15.95;59.80;98421.55;105912;1278;137689;-90
2022/06/04 02:59:41;;;;;;;6.40;5.60;;;;;;;15.97;60.16;98423.30;106644;1277;22549;-90
2022/06/04 03:02:13;;;;;;;6.10;5.50;;;;;;;15.95;60.31;98416.33;106056;1279;137788;-89
2022/06/04 03:04:48;;;;;;;6.50;5.90;;;;;;;15.99;60.25;98416.31;106048;1278;24413;-91
2022/06/04 03:07:18;;;;;;;7.90;5.90;;;;;;;15.97;60.46;98414.52;106688;1277;30441;-89
2022/06/04 03:09:48;;;;;;;11.60;6.00;;;;;;;15.97;60.48;98417.05;106361;1277;137286;-90
2022/06/04 03:12:15;;;;;;;6.50;5.60;;;;;;;15.98;60.78;98414.25;106299;1277;25248;-91
2022/06/04 03:14:48;;;;;;;11.90;6.20;;;;;;;15.96;61.42;98415.73;106329;1277;138292;-90
2022/06/04 03:17:32;;;;;;;5.90;5.30;;;;;;;15.98;61.96;98418.64;105953;1278;23922;-90
2022/06/04 03:20:07;;;;;;;9.60;6.30;;;;;;;16.01;62.63;98418.73;105873;1278;138669;-91
2022/06/04 03:22:35;;;;;;;8.80;6.40;;;;;;;16.04;62.72;98418.77;106593;1277;22605;-92
2022/06/04 03:25:03;;;;;;;6.50;5.90;;;;;;;16.05;62.84;98420.13;105936;1277;22561;-90
2022/06/04 03:27:31;;;;;;;8.20;6.80;;;;;;;16.08;63.13;98429.41;106428;1278;137440;-84
2022/06/04 03:29:58;;;;;;;8.30;6.90;;;;;;;16.08;63.65;98428.37;106195;1277;24520;-82
2022/06/04 03:32:39;;;;;;;11.50;6.60;;;;;;;16.08;64.48;98422.77;106426;1277;137347;-83
2022/06/04 03:35:21;;;;;;;9.60;8.00;;;;;;;16.05;65.28;98420.84;106436;1277;25424;-82
2022/06/04 03:37:48;;;;;;;10.30;6.90;;;;;;;16.04;65.85;98419.27;105921;1277;138784;-82
2022/06/04 03:40:29;;;;;;;7.40;6.40;;;;;;;16.03;66.74;98414.10;106390;1278;25491;-82
2022/06/04 03:42:59;;;;;;;7.90;6.00;;;;;;;16.01;67.41;98409.11;106454;1277;25459;-83
2022/06/04 03:45:26;;;;;;;9.50;7.10;;;;;;;15.98;67.16;98404.40;106093;1277;137790;-83
2022/06/04 03:48:07;;;;;;;7.50;6.00;;;;;;;15.89;66.89;98403.89;106282;1277;30406;-83
2022/06/04 03:50:49;;;;;;;9.80;7.70;;;;;;;15.74;68.26;98415.41;106076;1277;137515;-85
2022/06/04 03:53:19;;;;;;;11.70;7.80;;;;;;;15.54;69.60;98411.98;106257;1277;25257;-85
2022/06/04 03:55:46;;;;;;;13.10;7.50;;;;;;;15.44;69.87;98408.40;106104;1277;137758;-85
2022/06/04 03:58:32;;;;;;;10.20;7.90;;;;;;;15.40;70.05;98404.85;106288;1277;29423;-84
2022/06/04 04:01:26;;;;;;;10.70;7.40;;;;;;;15.41;70.64;98401.92;105998;1279;24303;-85
2022/06/04 04:04:06;;;;;;;7.90;6.60;;;;;;;15.41;70.16;98401.54;105992;1279;24341;-86
2022/06/04 04:06:34;;;;;;;8.20;7.40;;;;;;;15.40;69.88;98401.39;106173;1279;25537;-87
2022/06/04 04:09:01;;;;;;;10.70;8.40;;;;;;;15.40;70.07;98405.61;106183;1280;137489;-86
2022/06/04 04:11:28;;;;;;;10.00;7.90;;;;;;;15.41;69.95;98409.61;106123;1280;22580;-87
2022/06/04 04:13:56;;;;;;;8.80;7.90;;;;;;;15.46;70.27;98413.55;106063;1280;138013;-87
2022/06/04 04:16:37;;;;;;;10.70;8.00;;;;;;;15.53;70.87;98418.81;106611;1280;25265;-86
2022/06/04 04:19:03;;;;;;;9.50;7.20;;;;;;;15.59;70.63;98410.34;106367;1279;30655;-86
2022/06/04 04:21:44;;;;;;;8.40;7.00;;;;;;;15.64;71.30;98404.50;106049;1279;138246;-86
2022/06/04 04:24:17;;;;;;;9.80;7.40;;;;;;;15.68;71.11;98402.08;105937;1279;22638;-86
2022/06/04 04:26:44;;;;;;;8.20;7.20;;;;;;;15.73;70.65;98404.81;106206;1279;139536;-84
2022/06/04 04:29:25;;;;;;;8.60;7.80;;;;;;;15.79;70.87;98411.30;106104;1279;33109;-84
2022/06/04 04:31:53;;;;;;;9.30;7.80;;;;;;;15.74;71.78;98410.58;106141;1280;137943;-81
2022/06/04 04:34:20;;;;;;;12.10;8.70;;;;;;;15.69;72.25;98413.71;106405;1280;23943;-80
2022/06/04 04:37:01;;;;;;;8.10;7.10;;;;;;;15.63;72.56;98413.06;105904;1281;22483;-80
2022/06/04 04:39:42;;;;;;;8.50;6.80;;;;;;;15.62;72.70;98421.20;106013;1281;138005;-79
2022/06/04 04:42:24;;;;;;;8.50;7.00;;;;;;;15.63;72.97;98419.93;106005;1279;22686;-79
2022/06/04 04:45:07;;;;;;;8.90;7.50;;;;;;;15.68;73.33;98420.58;105930;1279;137288;-79
2022/06/04 04:47:36;;;;;;;9.20;8.00;;;;;;;15.70;73.81;98423.98;105764;1281;22545;-79
2022/06/04 04:50:12;;;;;;;9.50;7.60;;;;;;;15.69;74.16;98431.61;105683;1280;137874;-82
2022/06/04 04:52:54;;;;;;;9.30;7.00;;;;;;;15.64;74.26;98434.21;106052;1279;25424;-80
2022/06/04 04:55:21;;;;;;;9.40;7.60;;;;;;;15.59;74.77;98441.63;106224;1280;22653;-80
2022/06/04 04:58:03;;;;;;;11.50;8.30;;;;;;;15.62;75.53;98447.11;106071;1279;25409;-81
2022/06/04 05:00:44;;;;;;;9.10;8.30;;;;;;;15.68;75.93;98448.08;106009;1278;25430;-80
2022/06/04 05:03:25;;;;;;;9.10;8.30;;;;;;;15.75;75.75;98454.30;105897;1278;137566;-81
2022/06/04 05:06:00;;;;;;;9.00;8.10;;;;;;;15.79;76.04;98452.31;105991;1277;22546;-82
2022/06/04 05:08:27;;;;;;;9.10;7.50;;;;;;;15.84;76.46;98456.48;106377;1280;137980;-82
2022/06/04 05:11:14;;;;;;;7.80;7.00;;;;;;;15.87;76.25;98455.59;106238;1278;23025;-81
2022/06/04 05:13:41;;;;;;;7.70;7.00;;;;;;;15.88;75.70;98456.52;106088;1277;138331;-84
2022/06/04 05:16:08;;;;;;;12.00;8.00;;;;;;;15.90;75.54;98461.06;106324;1278;25334;-83
2022/06/04 05:18:35;;;;;;;9.40;8.00;;;;;;;15.95;75.56;98469.06;106334;1277;22585;-83
2022/06/04 05:21:28;;;;;;;11.10;8.80;;;;;;;15.93;75.57;98474.90;106396;1276;137583;-82
2022/06/04 05:23:56;;;;;;;13.90;8.50;;;;;;;15.94;75.62;98489.01;106234;1277;22542;-82
2022/06/04 05:26:23;;;;;;;10.30;7.60;;;;;;;15.99;75.65;98507.41;106259;1278;138494;-83
2022/06/04 05:28:51;;;;;;;11.30;8.30;;;;;;;16.03;75.41;98521.23;106379;1278;22532;-85
2022/06/04 05:31:20;;;;;;;9.60;8.60;;;;;;;16.07;74.97;98516.39;106541;1277;22681;-84
2022/06/04 05:33:47;;;;;;;11.20;9.10;;;;;;;16.09;74.84;98518.95;106660;1277;137735;-85
2022/06/04 05:36:29;;;;;;;11.40;9.00;;;;;;;16.14;74.62;98526.68;106274;1277;22632;-85
2022/06/04 05:39:10;;;;;;;12.00;9.20;;;;;;;16.17;74.61;98518.61;106421;1277;137464;-85
2022/06/04 05:41:52;;;;;;;9.50;8.60;;;;;;;16.13;74.43;98527.02;106713;1277;22563;-83
2022/06/04 05:44:19;;;;;;;11.90;8.80;;;;;;;16.14;74.66;98537.40;106101;1278;138115;-83
2022/06/04 05:46:46;;;;;;;10.00;8.90;;;;;;;16.16;74.78;98539.23;106173;1278;22588;-82
2022/06/04 05:49:27;;;;;;;11.70;9.30;;;;;;;16.18;75.04;98542.79;106260;1277;22814;-81
2022/06/04 05:52:08;;;;;;;13.70;10.00;;;;;;;16.18;74.92;98539.09;106211;1278;24272;-80
2022/06/04 05:54:49;;;;;;;10.70;9.60;;;;;;;16.16;74.67;98536.80;106152;1279;26253;-81
2022/06/04 05:57:16;;;;;;;10.60;9.60;;;;;;;16.12;74.18;98529.89;106230;1277;138403;-81
2022/06/04 05:59:57;;;;;;;11.70;8.80;;;;;;;16.07;74.11;98523.36;106512;1277;23276;-81
2022/06/04 06:02:24;;;;;;;13.80;9.50;;;;;;;15.99;74.79;98512.13;106597;1277;138056;-80
2022/06/04 06:04:51;;;;;;;12.00;9.90;;;;;;;15.95;75.23;98513.72;106523;1277;22706;-80
2022/06/04 06:07:18;;;;;;;14.10;9.70;;;;;;;15.92;75.73;98520.71;106656;1277;25384;-80
2022/06/04 06:09:45;;;;;;;14.00;9.50;;;;;;;15.87;75.95;98523.86;106648;1277;137991;-80
2022/06/04 06:12:12;;;;;;;9.50;8.40;;;;;;;15.83;75.98;98521.27;106339;1277;25251;-79
2022/06/04 06:14:53;;;;;;;12.30;9.60;;;;;;;15.68;76.51;98520.67;106335;1277;137974;-81
2022/06/04 06:17:20;;;;;;;14.90;11.50;;;;;;;15.57;77.23;98512.39;106075;1278;25271;-81
2022/06/04 06:19:48;;;;;;;10.90;9.60;;;;;;;15.54;77.59;98511.25;106293;1277;139310;-80
2022/06/04 06:22:29;;;;;;;12.20;9.60;;;;;;;15.45;77.98;98511.32;106327;1277;25424;-81
2022/06/04 06:24:56;;;;;;;10.70;9.50;;;;;;;15.39;78.84;98514.34;106316;1277;22668;-81
2022/06/04 06:27:37;;;;;;;12.30;10.70;;;;;;;15.31;79.06;98510.48;106246;1277;138150;-80
2022/06/04 06:30:06;;;;;;;12.80;10.40;;;;;;;15.28;80.04;98500.78;106213;1280;22711;-80
2022/06/04 06:32:33;;;;;;;11.70;10.50;;;;;;;15.29;80.38;98499.19;106264;1277;138834;-80
2022/06/04 06:35:14;;;;;;;11.60;10.50;;;;;;;15.29;80.54;98493.11;106315;1277;22622;-80
2022/06/04 06:37:41;;;;;;;12.70;9.90;;;;;;;15.30;80.94;98494.48;106196;1278;138950;-80
2022/06/04 06:40:09;;;;;;;10.70;9.60;;;;;;;15.26;81.30;98495.14;106261;1278;24247;-79
2022/06/04 06:42:36;;;;;;;12.70;9.70;;;;;;;15.24;81.56;98488.43;106344;1278;24270;-80
2022/06/04 06:45:06;;;;;;;13.40;11.00;;;;;;;15.30;82.06;98488.48;106325;1277;137938;-80
2022/06/04 06:47:33;;;;;;;19.60;12.70;;;;;;;15.36;81.99;98479.27;106401;1277;22604;-80
2022/06/04 06:50:00;;;;;;;12.70;10.70;;;;;;;15.44;81.99;98475.75;106109;1277;138334;-80
2022/06/04 06:52:28;;;;;;;12.50;10.30;;;;;;;15.48;81.82;98467.28;106135;1277;22561;-80
2022/06/04 06:55:09;;;;;;;12.10;10.10;;;;;;;15.53;82.06;98462.94;105912;1277;25375;-80
2022/06/04 06:57:36;;;;;;;12.60;10.20;;;;;;;15.61;81.69;98467.93;106037;1278;138194;-80
2022/06/04 07:00:04;;;;;;;12.00;10.80;;;;;;;15.66;81.14;98467.80;106277;1278;22594;-80
2022/06/04 07:02:32;;;;;;;13.30;11.10;;;;;;;15.71;81.14;98468.83;106150;1277;138088;-80
2022/06/04 07:04:59;;;;;;;13.60;10.80;;;;;;;15.74;81.28;98465.92;106140;1277;22541;-80
2022/06/04 07:07:27;;;;;;;12.10;10.00;;;;;;;15.78;81.44;98463.19;106297;1277;25488;-80
2022/06/04 07:10:08;;;;;;;13.10;9.80;;;;;;;15.84;81.32;98463.83;106125;1278;24203;-80
2022/06/04 07:12:49;;;;;;;14.40;10.50;;;;;;;15.91;81.10;98466.49;106072;1278;31784;-80
2022/06/04 07:15:30;;;;;;;11.60;10.10;;;;;;;15.91;81.26;98467.21;106066;1278;137702;-80
2022/06/04 07:17:57;;;;;;;12.20;10.70;;;;;;;15.89;81.73;98467.48;106108;1279;25540;-80
2022/06/04 07:20:39;;;;;;;12.80;10.10;;;;;;;15.92;81.68;98464.46;106085;1278;138104;-80
2022/06/04 07:23:20;;;;;;;11.10;9.10;;;;;;;15.99;81.83;98464.05;106266;1277;24423;-80
2022/06/04 07:25:48;;;;;;;12.10;8.30;;;;;;;16.08;81.97;98466.17;105881;1278;138376;-80
2022/06/04 07:28:15;;;;;;;9.70;8.20;;;;;;;16.20;81.89;98466.77;105998;1277;22609;-80
2022/06/04 07:30:59;;;;;;;10.00;9.10;;;;;;;16.37;81.89;98471.36;106269;1277;25522;-80
2022/06/04 07:33:28;;;;;;;10.80;8.40;;;;;;;16.54;81.71;98471.00;106196;1277;137498;-80
2022/06/04 07:36:00;;;;;;;9.40;8.50;;;;;;;16.64;80.75;98475.67;106178;1277;22574;-80
2022/06/04 07:38:27;;;;;;;10.10;7.40;;;;;;;16.73;80.80;98474.79;106160;1277;138303;-79
2022/06/04 07:41:15;;;;;;;9.60;6.80;;;;;;;16.85;81.09;98477.65;106636;1277;22558;-80
2022/06/04 07:43:42;;;;;;;8.50;7.70;;;;;;;16.98;81.20;98478.11;106304;1278;137858;-80
2022/06/04 07:46:10;;;;;;;8.90;7.60;;;;;;;17.10;81.54;98483.73;106058;1278;22555;-80
2022/06/04 07:48:37;;;;;;;8.40;7.40;;;;;;;17.22;81.65;98484.79;106202;1277;22726;-80
2022/06/04 07:51:06;;;;;;;9.10;7.60;;;;;;;17.33;81.73;98481.69;106171;1277;137683;-80
2022/06/04 07:53:34;;;;;;;8.60;7.80;;;;;;;17.38;81.34;98485.86;106028;1278;25244;-81
2022/06/04 07:56:17;;;;;;;11.10;8.90;;;;;;;17.44;81.31;98491.38;106108;1278;138345;-81
2022/06/04 07:58:46;;;;;;;10.40;9.30;;;;;;;17.51;81.21;98490.71;106894;1277;22709;-81
2022/06/04 08:01:28;;;;;;;10.80;9.40;;;;;;;17.47;80.71;98492.17;106089;1278;23064;-81
2022/06/04 08:04:10;;;;;;;11.10;10.00;;;;;;;17.40;80.81;98487.85;106331;1278;24905;-82
2022/06/04 08:06:38;;;;;;;10.70;9.40;;;;;;;17.35;80.64;98485.52;106412;1278;22538;-82
2022/06/04 08:09:05;;;;;;;15.70;10.20;;;;;;;17.25;80.34;98482.35;106003;1278;138995;-83
2022/06/04 08:11:36;;;;;;;10.40;9.40;;;;;;;17.18;80.79;98490.61;106273;1277;23552;-78
2022/06/04 08:14:30;;;;;;;11.70;10.50;;;;;;;17.14;80.31;98498.57;105502;1278;137565;-77
2022/06/04 08:17:00;;;;;;;14.00;11.90;;;;;;;17.13;80.59;98506.43;105769;1279;23333;-76
2022/06/04 08:19:30;;;;;;;12.10;11.00;;;;;;;17.16;81.17;98516.23;105653;1277;22571;-77
2022/06/04 08:21:57;;;;;;;13.60;10.50;;;;;;;17.22;81.20;98519.03;105468;1278;139228;-77
2022/06/04 08:24:40;;;;;;;13.40;11.40;;;;;;;17.27;81.52;98520.26;105980;1277;24235;-77
2022/06/04 08:27:07;;;;;;;;;;;;;;;17.32;81.27;98528.31;105879;1277;139070;-77
2022/06/04 08:29:48;;;;;;;15.00;13.00;;;;;;;17.38;81.09;98535.05;105656;1277;22572;-75
2022/06/04 08:32:29;;;;;;;15.90;14.10;;;;;;;17.41;80.72;98540.95;106038;1277;137979;-82
2022/06/04 08:34:56;;;;;;;16.30;14.60;;;;;;;17.42;80.50;98543.77;106034;1278;24767;-85
2022/06/04 08:37:37;;;;;;;16.70;14.10;;;;;;;17.43;80.56;98547.77;105718;1278;138679;-78
2022/06/04 08:40:35;;;;;;;14.70;13.00;;;;;;;17.44;80.22;98544.95;106563;1277;22276;-88
2022/06/04 08:43:14;;;;;;;17.60;15.30;;;;;;;17.42;80.00;98540.68;105946;1279;22585;-83
2022/06/04 08:45:42;;;;;;;15.70;13.90;;;;;;;17.43;80.14;98545.45;106293;1278;138672;-85
2022/06/04 08:48:32;;;;;;;17.20;14.70;;;;;;;17.50;79.99;98551.01;106470;1277;22676;-81
2022/06/04 08:51:00;;;;;;;17.60;15.70;;;;;;;17.57;79.84;98557.36;106393;1277;138007;-81
2022/06/04 08:53:30;;;;;;;15.80;14.20;;;;;;;17.60;80.02;98562.33;106160;1277;24349;-79
2022/06/04 08:59:35;;;;;;;17.00;14.30;;;;;;;17.72;79.69;98569.72;106215;1277;22627;-82
2022/06/04 09:02:25;;;;;;;18.60;15.20;;;;;;;17.78;79.33;98564.65;106238;1277;138271;-81
2022/06/04 09:05:09;;;;;;;15.90;14.30;;;;;;;17.86;79.43;98561.02;106242;1278;29328;-85
2022/06/04 09:07:44;;;;;;;16.30;14.10;;;;;;;17.93;78.92;98566.54;106320;1280;137911;-86
2022/06/04 09:10:34;;;;;;;16.00;14.30;;;;;;;17.96;78.72;98569.85;106311;1277;25526;-85
2022/06/04 09:13:28;;;;;;;14.40;12.30;;;;;;;17.94;78.43;98564.47;106209;1277;25316;-84
2022/06/04 09:16:29;;;;;;;15.70;14.10;;;;;;;17.90;78.62;98563.35;107021;1277;24385;-85
2022/06/04 09:19:00;;;;;;;15.90;14.20;;;;;;;17.95;78.69;98564.13;106477;1278;24275;-86
2022/06/04 09:21:35;;;;;;;15.80;14.30;;;;;;;17.99;78.55;98560.46;105976;1277;137991;-86
2022/06/04 09:24:03;;;;;;;17.30;14.90;;;;;;;18.02;78.53;98562.52;106311;1277;25018;-86
2022/06/04 09:26:56;;;;;;;15.80;14.20;;;;;;;18.05;78.41;98560.02;106179;1277;138096;-85
2022/06/04 09:29:49;;;;;;;15.10;13.40;;;;;;;18.06;78.27;98551.18;106244;1280;25491;-82
2022/06/04 09:32:44;;;;;;;15.00;12.70;;;;;;;18.03;78.30;98547.69;106272;1277;139178;-83
2022/06/04 09:35:29;;;;;;;16.40;14.70;;;;;;;18.02;78.70;98540.70;106033;1277;22711;-82
2022/06/04 09:37:57;;;;;;;16.40;14.80;;;;;;;18.04;79.07;98533.52;105896;1281;137929;-81
2022/06/04 09:40:33;;;;;;;15.70;14.10;;;;;;;18.07;79.19;98536.62;106426;1278;22573;-84
2022/06/04 09:43:15;;;;;;;15.20;13.60;;;;;;;18.07;79.24;98537.33;105987;1281;22570;-85
2022/06/04 09:45:52;;;;;;;14.60;13.00;;;;;;;18.09;79.09;98542.66;106169;1277;138688;-84
2022/06/04 09:48:23;;;;;;;14.00;12.70;;;;;;;18.08;79.38;98545.60;105819;1279;24077;-83
2022/06/04 09:51:12;;;;;;;15.70;14.00;;;;;;;18.09;79.72;98554.73;106215;1277;137763;-85
2022/06/04 09:54:02;;;;;;;14.70;13.20;;;;;;;18.11;80.14;98548.98;106032;1277;24673;-84
2022/06/04 09:56:49;;;;;;;14.00;12.60;;;;;;;18.20;80.43;98550.43;105790;1278;140318;-85
2022/06/04 09:59:33;;;;;;;12.30;11.00;;;;;;;18.27;80.21;98550.94;107255;1277;22564;-83
2022/06/04 10:02:18;;;;;;;12.20;10.90;;;;;;;18.30;79.76;98556.10;106313;1277;139007;-84
2022/06/04 10:04:48;;;;;;;13.10;10.90;;;;;;;18.35;79.77;98558.25;106673;1278;22541;-84
2022/06/04 10:07:28;;;;;;;11.00;9.90;;;;;;;18.34;78.88;98557.16;106479;1280;22618;-81
2022/06/04 10:10:39;;;;;;;13.90;9.30;;;;;;;18.38;79.25;98551.88;107018;1277;24302;-85
2022/06/04 10:16:19;;;;;;;11.00;9.30;;;;;;;18.58;78.53;98547.15;105473;1278;22531;-85
2022/06/04 10:19:01;;;;;;;12.00;8.50;;;;;;;18.64;78.28;98547.40;106762;1277;25500;-82
2022/06/04 10:21:35;;;;;;;11.10;9.20;;;;;;;18.67;77.94;98554.27;106050;1278;138375;-82
2022/06/04 10:24:26;;;;;;;12.70;10.10;;;;;;;18.73;78.23;98554.30;106264;1278;25262;-87
2022/06/04 10:27:22;;;;;;;11.30;8.40;;;;;;;18.81;77.86;98550.67;105746;1278;138403;-87
2022/06/04 10:30:04;;;;;;;9.70;8.80;;;;;;;18.87;77.41;98553.47;106263;1277;25227;-86
2022/06/04 10:32:57;;;;;;;12.70;10.60;;;;;;;18.86;77.37;98552.10;106071;1278;137972;-87
2022/06/04 10:35:48;;;;;;;11.70;10.60;;;;;;;18.93;77.70;98555.70;106478;1277;22566;-87
2022/06/04 10:38:24;;;;;;;11.00;9.90;;;;;;;19.02;77.52;98556.41;106123;1278;137787;-86
2022/06/04 10:41:22;;;;;;;9.90;9.00;;;;;;;19.09;77.25;98555.70;106773;1278;25341;-85
2022/06/04 10:44:12;;;;;;;10.30;8.80;;;;;;;19.17;77.19;98554.76;106590;1277;139074;-85
2022/06/04 10:47:18;;;;;;;12.20;9.60;;;;;;;19.29;77.18;98550.81;107138;1278;22556;-85
2022/06/04 10:50:01;;;;;;;11.10;10.00;;;;;;;19.35;77.01;98553.26;106889;1278;138254;-85
2022/06/04 10:52:45;;;;;;;11.40;10.30;;;;;;;19.32;76.52;98552.08;106889;1280;24866;-85
2022/06/04 10:55:26;;;;;;;11.40;10.00;;;;;;;19.32;76.68;98551.26;106880;1277;23235;-85
2022/06/04 10:58:19;;;;;;;11.60;9.50;;;;;;;19.34;76.69;98551.78;107119;1279;138199;-85
2022/06/04 11:01:10;;;;;;;14.00;10.50;;;;;;;19.39;76.84;98552.82;107131;1277;22595;-85
2022/06/04 11:03:47;;;;;;;12.90;11.20;;;;;;;19.45;77.17;98555.76;106123;1277;138511;-85
2022/06/04 11:06:33;;;;;;;11.90;10.70;;;;;;;19.52;77.26;98550.56;108006;1277;22586;-85
2022/06/04 11:09:21;;;;;;;12.10;10.70;;;;;;;19.59;77.45;98555.41;106211;1280;137752;-86
2022/06/04 11:12:34;;;;;;;12.10;10.50;;;;;;;19.63;77.30;98553.95;106308;1280;25293;-85
2022/06/04 11:15:47;;;;;;;11.10;10.00;;;;;;;19.67;77.17;98555.98;107216;1278;138322;-86
2022/06/04 11:18:32;;;;;;;11.40;9.90;;;;;;;19.71;76.94;98555.87;106483;1278;30353;-85
2022/06/04 11:21:21;;;;;;;10.70;9.70;;;;;;;19.69;76.89;98552.70;106181;1278;137421;-86
2022/06/04 11:24:11;;;;;;;13.00;10.20;;;;;;;19.69;77.01;98551.05;106282;1278;22776;-86
2022/06/04 11:27:09;;;;;;;10.40;9.30;;;;;;;19.72;76.78;98556.36;106443;1278;138392;-86
2022/06/04 11:29:54;;;;;;;10.60;9.30;;;;;;;19.75;76.58;98555.12;106451;1278;24316;-86
2022/06/04 11:32:32;;;;;;;10.20;9.20;;;;;;;19.80;76.52;98553.30;106109;1275;137746;-86
2022/06/04 11:35:08;;;;;;;10.90;9.90;;;;;;;19.87;76.52;98548.38;106212;1280;22767;-86
2022/06/04 11:37:38;;;;;;;10.60;9.50;;;;;;;19.96;77.02;98539.08;105965;1280;137681;-86
2022/06/04 11:40:48;;;;;;;10.60;9.50;;;;;;;20.11;77.13;98543.98;106162;1279;25369;-87
2022/06/04 11:43:36;;;;;;;11.50;10.30;;;;;;;20.26;76.74;98544.49;106371;1280;22616;-86
2022/06/04 11:46:15;;;;;;;12.20;10.60;;;;;;;20.41;76.74;98537.11;105953;1280;23939;-86
2022/06/04 11:49:14;;;;;;;10.30;9.10;;;;;;;20.51;76.42;98536.40;106127;1279;22559;-86
2022/06/04 11:52:03;;;;;;;9.40;8.50;;;;;;;20.56;75.86;98536.59;106122;1280;137591;-86
2022/06/04 11:55:16;;;;;;;8.10;7.30;;;;;;;20.56;74.94;98538.20;106167;1280;22616;-86
2022/06/04 11:58:21;;;;;;;9.10;8.00;;;;;;;20.53;74.62;98532.06;106123;1279;138556;-86
2022/06/04 12:00:49;;;;;;;9.60;8.50;;;;;;;20.53;74.83;98526.79;106294;1279;24483;-85
2022/06/04 12:03:49;;;;;;;10.40;9.40;;;;;;;20.55;74.81;98525.05;106435;1277;138714;-85
2022/06/04 12:06:41;;;;;;;11.90;9.70;;;;;;;20.56;74.64;98526.17;106260;1278;25472;-85
2022/06/04 12:09:33;;;;;;;11.00;10.00;;;;;;;20.59;74.69;98532.48;106306;1277;137989;-84
2022/06/04 12:12:51;;;;;;;11.30;10.20;;;;;;;20.65;74.82;98532.16;106263;1276;22538;-85
2022/06/04 12:15:34;;;;;;;11.40;10.10;;;;;;;20.73;74.51;98534.71;106649;1277;138378;-85
2022/06/04 12:18:27;;;;;;;9.40;8.40;;;;;;;20.86;74.64;98533.54;106127;1279;22619;-85
2022/06/04 12:24:27;;;;;;;9.70;8.70;;;;;;;21.09;73.46;98540.38;105979;1279;25101;-85